Terminal Aerodrome Forecast
Issued by NWS Jacksonville, FL

Current Version | Previous Version | Text Only | Print | Product List | Glossary On
Versions: 1 2 3 4 5 6 7 8 9 10 11 12 13 14
979
FTUS42 KJAX 261120
TAFSSI
TAF
KSSI 261120Z 2612/2712 22005KT P6SM SKC
     FM261700 14010KT P6SM VCSH FEW035
     FM270200 20006KT P6SM SCT250=

USA.gov is the U.S. government's official web portal to all federal, state and local government web resources and services.